sensor_id;sensor_type;location;lat;lon;timestamp;temperature;humidity
32296;DHT22;18781;51.550;5.418;2023-11-19T00:02:19;16.10;84.70
32296;DHT22;18781;51.550;5.418;2023-11-19T00:04:44;16.10;84.70
32296;DHT22;18781;51.550;5.418;2023-11-19T00:07:10;16.10;84.70
32296;DHT22;18781;51.550;5.418;2023-11-19T00:09:37;16.10;84.60
32296;DHT22;18781;51.550;5.418;2023-11-19T00:12:07;16.10;84.60
32296;DHT22;18781;51.550;5.418;2023-11-19T00:14:33;16.10;84.50
32296;DHT22;18781;51.550;5.418;2023-11-19T00:16:58;16.10;84.60
32296;DHT22;18781;51.550;5.418;2023-11-19T00:19:24;16.10;84.40
32296;DHT22;18781;51.550;5.418;2023-11-19T00:21:50;16.10;84.40
32296;DHT22;18781;51.550;5.418;2023-11-19T00:24:15;16.20;84.50
32296;DHT22;18781;51.550;5.418;2023-11-19T00:26:42;16.20;84.40
32296;DHT22;18781;51.550;5.418;2023-11-19T00:29:08;16.20;84.40
32296;DHT22;18781;51.550;5.418;2023-11-19T00:31:34;16.20;84.40
32296;DHT22;18781;51.550;5.418;2023-11-19T00:34:00;16.20;84.40
32296;DHT22;18781;51.550;5.418;2023-11-19T00:36:27;16.20;84.30
32296;DHT22;18781;51.550;5.418;2023-11-19T00:38:52;16.20;84.30
32296;DHT22;18781;51.550;5.418;2023-11-19T00:41:18;16.20;84.20
32296;DHT22;18781;51.550;5.418;2023-11-19T00:43:44;16.20;84.20
32296;DHT22;18781;51.550;5.418;2023-11-19T00:46:10;16.20;84.20
32296;DHT22;18781;51.550;5.418;2023-11-19T00:48:39;16.20;84.20
32296;DHT22;18781;51.550;5.418;2023-11-19T00:51:05;16.20;84.20
32296;DHT22;18781;51.550;5.418;2023-11-19T00:53:31;16.20;84.10
32296;DHT22;18781;51.550;5.418;2023-11-19T00:55:57;16.20;84.00
32296;DHT22;18781;51.550;5.418;2023-11-19T00:58:23;16.20;84.00
32296;DHT22;18781;51.550;5.418;2023-11-19T01:00:49;16.20;83.90
32296;DHT22;18781;51.550;5.418;2023-11-19T01:03:14;16.20;83.90
32296;DHT22;18781;51.550;5.418;2023-11-19T01:05:41;16.20;83.80
32296;DHT22;18781;51.550;5.418;2023-11-19T01:08:07;16.30;83.70
32296;DHT22;18781;51.550;5.418;2023-11-19T01:10:33;16.20;83.60
32296;DHT22;18781;51.550;5.418;2023-11-19T01:12:59;16.20;83.60
32296;DHT22;18781;51.550;5.418;2023-11-19T01:15:25;16.20;83.70
32296;DHT22;18781;51.550;5.418;2023-11-19T01:17:50;16.20;83.50
32296;DHT22;18781;51.550;5.418;2023-11-19T01:20:16;16.30;83.40
32296;DHT22;18781;51.550;5.418;2023-11-19T01:22:42;16.30;83.40
32296;DHT22;18781;51.550;5.418;2023-11-19T01:25:09;16.20;83.40
32296;DHT22;18781;51.550;5.418;2023-11-19T01:27:34;16.20;83.40
32296;DHT22;18781;51.550;5.418;2023-11-19T01:30:02;16.20;83.30
32296;DHT22;18781;51.550;5.418;2023-11-19T01:32:31;16.20;83.20
32296;DHT22;18781;51.550;5.418;2023-11-19T01:34:57;16.30;83.10
32296;DHT22;18781;51.550;5.418;2023-11-19T01:37:23;16.30;83.10
32296;DHT22;18781;51.550;5.418;2023-11-19T01:39:49;16.20;83.00
32296;DHT22;18781;51.550;5.418;2023-11-19T01:42:14;16.20;83.50
32296;DHT22;18781;51.550;5.418;2023-11-19T01:44:41;16.20;82.90
32296;DHT22;18781;51.550;5.418;2023-11-19T01:47:07;16.20;82.80
32296;DHT22;18781;51.550;5.418;2023-11-19T01:49:33;16.20;82.80
32296;DHT22;18781;51.550;5.418;2023-11-19T01:52:00;16.20;82.90
32296;DHT22;18781;51.550;5.418;2023-11-19T01:54:26;16.20;82.70
32296;DHT22;18781;51.550;5.418;2023-11-19T01:56:56;16.20;82.80
32296;DHT22;18781;51.550;5.418;2023-11-19T01:59:24;16.10;82.70
32296;DHT22;18781;51.550;5.418;2023-11-19T02:01:55;16.20;82.80
32296;DHT22;18781;51.550;5.418;2023-11-19T02:04:21;16.10;82.80
32296;DHT22;18781;51.550;5.418;2023-11-19T02:06:48;16.10;82.70
32296;DHT22;18781;51.550;5.418;2023-11-19T02:09:15;16.10;82.60
32296;DHT22;18781;51.550;5.418;2023-11-19T02:11:45;16.20;83.20
32296;DHT22;18781;51.550;5.418;2023-11-19T02:14:10;16.20;82.60
32296;DHT22;18781;51.550;5.418;2023-11-19T02:16:36;16.20;82.60
32296;DHT22;18781;51.550;5.418;2023-11-19T02:19:02;16.20;82.40
32296;DHT22;18781;51.550;5.418;2023-11-19T02:21:27;16.20;82.30
32296;DHT22;18781;51.550;5.418;2023-11-19T02:23:53;16.20;82.10
32296;DHT22;18781;51.550;5.418;2023-11-19T02:26:24;16.10;82.40
32296;DHT22;18781;51.550;5.418;2023-11-19T02:28:53;16.10;81.70
32296;DHT22;18781;51.550;5.418;2023-11-19T02:31:19;16.10;81.60
32296;DHT22;18781;51.550;5.418;2023-11-19T02:33:45;16.10;81.60
32296;DHT22;18781;51.550;5.418;2023-11-19T02:36:11;16.10;81.50
32296;DHT22;18781;51.550;5.418;2023-11-19T02:38:37;16.10;81.60
32296;DHT22;18781;51.550;5.418;2023-11-19T02:41:06;16.10;81.50
32296;DHT22;18781;51.550;5.418;2023-11-19T02:43:33;16.10;81.30
32296;DHT22;18781;51.550;5.418;2023-11-19T02:46:05;16.10;81.30
32296;DHT22;18781;51.550;5.418;2023-11-19T02:48:34;16.00;81.00
32296;DHT22;18781;51.550;5.418;2023-11-19T02:51:03;16.00;81.00
32296;DHT22;18781;51.550;5.418;2023-11-19T02:53:30;16.00;81.40
32296;DHT22;18781;51.550;5.418;2023-11-19T02:55:56;15.90;80.80
32296;DHT22;18781;51.550;5.418;2023-11-19T02:58:27;15.90;80.80
32296;DHT22;18781;51.550;5.418;2023-11-19T03:00:54;15.90;80.80
32296;DHT22;18781;51.550;5.418;2023-11-19T03:03:26;15.90;80.70
32296;DHT22;18781;51.550;5.418;2023-11-19T03:06:04;15.80;80.50
32296;DHT22;18781;51.550;5.418;2023-11-19T03:08:31;15.80;80.60
32296;DHT22;18781;51.550;5.418;2023-11-19T03:10:58;15.80;80.60
32296;DHT22;18781;51.550;5.418;2023-11-19T03:13:24;15.70;80.50
32296;DHT22;18781;51.550;5.418;2023-11-19T03:15:50;15.70;80.50
32296;DHT22;18781;51.550;5.418;2023-11-19T03:18:16;15.70;80.30
32296;DHT22;18781;51.550;5.418;2023-11-19T03:20:42;15.60;80.40
32296;DHT22;18781;51.550;5.418;2023-11-19T03:23:08;15.60;80.30
32296;DHT22;18781;51.550;5.418;2023-11-19T03:25:33;15.60;80.40
32296;DHT22;18781;51.550;5.418;2023-11-19T03:28:00;15.60;80.40
32296;DHT22;18781;51.550;5.418;2023-11-19T03:30:29;15.60;80.20
32296;DHT22;18781;51.550;5.418;2023-11-19T03:32:56;15.50;80.10
32296;DHT22;18781;51.550;5.418;2023-11-19T03:35:22;15.50;80.00
32296;DHT22;18781;51.550;5.418;2023-11-19T03:37:48;15.50;80.00
32296;DHT22;18781;51.550;5.418;2023-11-19T03:40:13;15.50;79.80
32296;DHT22;18781;51.550;5.418;2023-11-19T03:42:40;15.40;79.80
32296;DHT22;18781;51.550;5.418;2023-11-19T03:45:06;15.40;80.30
32296;DHT22;18781;51.550;5.418;2023-11-19T03:47:34;15.40;79.50
32296;DHT22;18781;51.550;5.418;2023-11-19T03:50:00;15.40;79.60
32296;DHT22;18781;51.550;5.418;2023-11-19T03:52:25;15.30;79.50
32296;DHT22;18781;51.550;5.418;2023-11-19T03:54:52;15.30;80.10
32296;DHT22;18781;51.550;5.418;2023-11-19T03:57:18;15.30;79.60
32296;DHT22;18781;51.550;5.418;2023-11-19T03:59:44;15.30;79.50
32296;DHT22;18781;51.550;5.418;2023-11-19T04:02:10;15.30;79.50
32296;DHT22;18781;51.550;5.418;2023-11-19T04:04:35;15.20;79.50
32296;DHT22;18781;51.550;5.418;2023-11-19T04:07:01;15.20;79.40
32296;DHT22;18781;51.550;5.418;2023-11-19T04:09:28;15.20;79.40
32296;DHT22;18781;51.550;5.418;2023-11-19T04:11:54;15.20;79.50
32296;DHT22;18781;51.550;5.418;2023-11-19T04:14:20;15.20;79.60
32296;DHT22;18781;51.550;5.418;2023-11-19T04:16:46;15.10;79.50
32296;DHT22;18781;51.550;5.418;2023-11-19T04:19:12;15.20;79.60
32296;DHT22;18781;51.550;5.418;2023-11-19T04:21:40;15.10;79.60
32296;DHT22;18781;51.550;5.418;2023-11-19T04:24:06;15.10;79.40
32296;DHT22;18781;51.550;5.418;2023-11-19T04:26:32;15.10;79.40
32296;DHT22;18781;51.550;5.418;2023-11-19T04:28:58;15.10;79.30
32296;DHT22;18781;51.550;5.418;2023-11-19T04:31:31;15.10;79.10
32296;DHT22;18781;51.550;5.418;2023-11-19T04:33:57;15.10;79.00
32296;DHT22;18781;51.550;5.418;2023-11-19T04:36:22;15.00;79.10
32296;DHT22;18781;51.550;5.418;2023-11-19T04:38:50;15.00;79.00
32296;DHT22;18781;51.550;5.418;2023-11-19T04:41:16;15.10;79.00
32296;DHT22;18781;51.550;5.418;2023-11-19T04:43:41;15.00;78.90
32296;DHT22;18781;51.550;5.418;2023-11-19T04:46:07;15.10;79.00
32296;DHT22;18781;51.550;5.418;2023-11-19T04:48:34;15.00;78.90
32296;DHT22;18781;51.550;5.418;2023-11-19T04:51:00;15.00;78.90
32296;DHT22;18781;51.550;5.418;2023-11-19T04:53:25;15.00;78.80
32296;DHT22;18781;51.550;5.418;2023-11-19T04:55:51;15.00;78.80
32296;DHT22;18781;51.550;5.418;2023-11-19T04:58:17;14.90;78.60
32296;DHT22;18781;51.550;5.418;2023-11-19T05:00:42;14.90;78.60
32296;DHT22;18781;51.550;5.418;2023-11-19T05:03:08;14.90;78.70
32296;DHT22;18781;51.550;5.418;2023-11-19T05:05:34;14.90;78.70
32296;DHT22;18781;51.550;5.418;2023-11-19T05:07:59;14.90;78.80
32296;DHT22;18781;51.550;5.418;2023-11-19T05:10:25;14.90;78.80
32296;DHT22;18781;51.550;5.418;2023-11-19T05:12:51;14.90;78.80
32296;DHT22;18781;51.550;5.418;2023-11-19T05:15:17;14.90;78.80
32296;DHT22;18781;51.550;5.418;2023-11-19T05:17:43;14.90;78.80
32296;DHT22;18781;51.550;5.418;2023-11-19T05:20:09;14.90;78.70
32296;DHT22;18781;51.550;5.418;2023-11-19T05:22:40;14.80;78.60
32296;DHT22;18781;51.550;5.418;2023-11-19T05:25:06;14.80;78.50
32296;DHT22;18781;51.550;5.418;2023-11-19T05:27:31;14.80;78.50
32296;DHT22;18781;51.550;5.418;2023-11-19T05:29:57;14.80;78.60
32296;DHT22;18781;51.550;5.418;2023-11-19T05:32:23;14.80;78.40
32296;DHT22;18781;51.550;5.418;2023-11-19T05:34:48;14.80;78.40
32296;DHT22;18781;51.550;5.418;2023-11-19T05:37:14;14.80;78.30
32296;DHT22;18781;51.550;5.418;2023-11-19T05:39:39;14.80;78.30
32296;DHT22;18781;51.550;5.418;2023-11-19T05:42:05;14.80;78.20
32296;DHT22;18781;51.550;5.418;2023-11-19T05:44:31;14.80;78.20
32296;DHT22;18781;51.550;5.418;2023-11-19T05:46:56;14.70;78.00
32296;DHT22;18781;51.550;5.418;2023-11-19T05:49:22;14.70;78.00
32296;DHT22;18781;51.550;5.418;2023-11-19T05:51:47;14.70;78.00
32296;DHT22;18781;51.550;5.418;2023-11-19T05:54:13;14.70;78.00
32296;DHT22;18781;51.550;5.418;2023-11-19T05:56:39;14.70;77.90
32296;DHT22;18781;51.550;5.418;2023-11-19T05:59:04;14.70;78.00
32296;DHT22;18781;51.550;5.418;2023-11-19T06:01:35;14.70;78.00
32296;DHT22;18781;51.550;5.418;2023-11-19T06:04:00;14.60;77.90
32296;DHT22;18781;51.550;5.418;2023-11-19T06:06:27;14.60;77.90
32296;DHT22;18781;51.550;5.418;2023-11-19T06:08:53;14.60;77.90
32296;DHT22;18781;51.550;5.418;2023-11-19T06:11:18;14.60;77.90
32296;DHT22;18781;51.550;5.418;2023-11-19T06:13:46;14.60;77.90
32296;DHT22;18781;51.550;5.418;2023-11-19T06:16:13;14.60;77.90
32296;DHT22;18781;51.550;5.418;2023-11-19T06:18:39;14.60;77.90
32296;DHT22;18781;51.550;5.418;2023-11-19T06:21:04;14.50;77.90
32296;DHT22;18781;51.550;5.418;2023-11-19T06:23:30;14.60;77.90
32296;DHT22;18781;51.550;5.418;2023-11-19T06:25:55;14.50;77.90
32296;DHT22;18781;51.550;5.418;2023-11-19T06:28:21;14.50;78.00
32296;DHT22;18781;51.550;5.418;2023-11-19T06:30:47;14.50;78.00
32296;DHT22;18781;51.550;5.418;2023-11-19T06:33:15;14.50;78.50
32296;DHT22;18781;51.550;5.418;2023-11-19T06:35:41;14.50;78.00
32296;DHT22;18781;51.550;5.418;2023-11-19T06:38:06;14.50;78.00
32296;DHT22;18781;51.550;5.418;2023-11-19T06:40:35;14.50;78.00
32296;DHT22;18781;51.550;5.418;2023-11-19T06:43:01;14.40;77.80
32296;DHT22;18781;51.550;5.418;2023-11-19T06:45:29;14.40;77.80
32296;DHT22;18781;51.550;5.418;2023-11-19T06:47:54;14.40;77.80
32296;DHT22;18781;51.550;5.418;2023-11-19T06:50:20;14.40;77.80
32296;DHT22;18781;51.550;5.418;2023-11-19T06:52:46;14.30;77.80
32296;DHT22;18781;51.550;5.418;2023-11-19T06:55:11;14.40;77.90
32296;DHT22;18781;51.550;5.418;2023-11-19T06:57:37;14.40;77.80
32296;DHT22;18781;51.550;5.418;2023-11-19T07:00:03;14.40;77.70
32296;DHT22;18781;51.550;5.418;2023-11-19T07:02:31;14.40;77.70
32296;DHT22;18781;51.550;5.418;2023-11-19T07:04:56;14.30;77.80
32296;DHT22;18781;51.550;5.418;2023-11-19T07:07:22;14.30;77.80
32296;DHT22;18781;51.550;5.418;2023-11-19T07:09:48;14.30;77.80
32296;DHT22;18781;51.550;5.418;2023-11-19T07:12:13;14.30;77.70
32296;DHT22;18781;51.550;5.418;2023-11-19T07:14:39;14.30;77.70
32296;DHT22;18781;51.550;5.418;2023-11-19T07:17:05;14.30;77.70
32296;DHT22;18781;51.550;5.418;2023-11-19T07:19:31;14.20;77.70
32296;DHT22;18781;51.550;5.418;2023-11-19T07:21:57;14.20;77.70
32296;DHT22;18781;51.550;5.418;2023-11-19T07:24:22;14.20;77.70
32296;DHT22;18781;51.550;5.418;2023-11-19T07:26:48;14.20;77.70
32296;DHT22;18781;51.550;5.418;2023-11-19T07:29:14;14.20;77.70
32296;DHT22;18781;51.550;5.418;2023-11-19T07:31:42;14.20;77.70
32296;DHT22;18781;51.550;5.418;2023-11-19T07:34:10;14.20;77.60
32296;DHT22;18781;51.550;5.418;2023-11-19T07:36:36;14.20;77.70
32296;DHT22;18781;51.550;5.418;2023-11-19T07:39:03;14.20;77.60
32296;DHT22;18781;51.550;5.418;2023-11-19T07:41:30;14.20;77.70
32296;DHT22;18781;51.550;5.418;2023-11-19T07:43:56;14.20;77.70
32296;DHT22;18781;51.550;5.418;2023-11-19T07:46:21;14.20;77.70
32296;DHT22;18781;51.550;5.418;2023-11-19T07:48:47;14.20;77.70
32296;DHT22;18781;51.550;5.418;2023-11-19T07:51:13;14.20;77.80
32296;DHT22;18781;51.550;5.418;2023-11-19T07:53:40;14.20;77.80
32296;DHT22;18781;51.550;5.418;2023-11-19T07:56:06;14.20;77.80
32296;DHT22;18781;51.550;5.418;2023-11-19T07:58:32;14.20;77.70
32296;DHT22;18781;51.550;5.418;2023-11-19T08:00:58;14.20;77.80
32296;DHT22;18781;51.550;5.418;2023-11-19T08:03:24;14.20;77.80
32296;DHT22;18781;51.550;5.418;2023-11-19T08:05:49;14.20;77.80
32296;DHT22;18781;51.550;5.418;2023-11-19T08:08:15;14.20;77.80
32296;DHT22;18781;51.550;5.418;2023-11-19T08:10:41;14.20;77.80
32296;DHT22;18781;51.550;5.418;2023-11-19T08:13:06;14.20;77.80
32296;DHT22;18781;51.550;5.418;2023-11-19T08:15:33;14.20;77.90
32296;DHT22;18781;51.550;5.418;2023-11-19T08:17:58;14.20;78.40
32296;DHT22;18781;51.550;5.418;2023-11-19T08:20:24;14.20;78.00
32296;DHT22;18781;51.550;5.418;2023-11-19T08:22:50;14.30;77.90
32296;DHT22;18781;51.550;5.418;2023-11-19T08:25:15;14.30;77.90
32296;DHT22;18781;51.550;5.418;2023-11-19T08:27:41;14.30;77.90
32296;DHT22;18781;51.550;5.418;2023-11-19T08:30:08;14.30;77.90
32296;DHT22;18781;51.550;5.418;2023-11-19T08:32:34;14.30;77.90
32296;DHT22;18781;51.550;5.418;2023-11-19T08:35:00;14.40;77.90
32296;DHT22;18781;51.550;5.418;2023-11-19T08:37:26;14.40;77.80
32296;DHT22;18781;51.550;5.418;2023-11-19T08:39:52;14.40;77.80
32296;DHT22;18781;51.550;5.418;2023-11-19T08:42:18;14.40;77.80
32296;DHT22;18781;51.550;5.418;2023-11-19T08:44:44;14.40;78.00
32296;DHT22;18781;51.550;5.418;2023-11-19T08:47:15;14.40;77.90
32296;DHT22;18781;51.550;5.418;2023-11-19T08:49:43;14.40;77.80
32296;DHT22;18781;51.550;5.418;2023-11-19T08:52:09;14.50;77.80
32296;DHT22;18781;51.550;5.418;2023-11-19T08:54:36;14.60;78.00
32296;DHT22;18781;51.550;5.418;2023-11-19T08:57:02;14.60;77.90
32296;DHT22;18781;51.550;5.418;2023-11-19T08:59:29;14.60;77.90
32296;DHT22;18781;51.550;5.418;2023-11-19T09:01:55;14.60;77.70
32296;DHT22;18781;51.550;5.418;2023-11-19T09:04:21;14.60;77.80
32296;DHT22;18781;51.550;5.418;2023-11-19T09:06:48;14.60;77.90
32296;DHT22;18781;51.550;5.418;2023-11-19T09:09:14;14.70;77.90
32296;DHT22;18781;51.550;5.418;2023-11-19T09:11:40;14.70;77.80
32296;DHT22;18781;51.550;5.418;2023-11-19T09:14:06;14.80;77.90
32296;DHT22;18781;51.550;5.418;2023-11-19T09:16:31;14.80;77.90
32296;DHT22;18781;51.550;5.418;2023-11-19T09:18:58;14.80;77.80
32296;DHT22;18781;51.550;5.418;2023-11-19T09:21:27;14.80;77.70
32296;DHT22;18781;51.550;5.418;2023-11-19T09:23:55;14.90;77.60
32296;DHT22;18781;51.550;5.418;2023-11-19T09:26:20;14.90;77.60
32296;DHT22;18781;51.550;5.418;2023-11-19T09:28:46;14.90;77.50
32296;DHT22;18781;51.550;5.418;2023-11-19T09:31:15;14.90;77.30
32296;DHT22;18781;51.550;5.418;2023-11-19T09:33:41;15.00;77.30
32296;DHT22;18781;51.550;5.418;2023-11-19T09:36:07;15.00;77.30
32296;DHT22;18781;51.550;5.418;2023-11-19T09:38:33;15.00;77.20
32296;DHT22;18781;51.550;5.418;2023-11-19T09:40:59;15.00;77.20
32296;DHT22;18781;51.550;5.418;2023-11-19T09:43:28;15.00;77.20
32296;DHT22;18781;51.550;5.418;2023-11-19T09:45:55;15.10;77.20
32296;DHT22;18781;51.550;5.418;2023-11-19T09:48:21;15.10;77.30
32296;DHT22;18781;51.550;5.418;2023-11-19T09:50:50;15.10;77.40
32296;DHT22;18781;51.550;5.418;2023-11-19T09:53:17;15.20;77.40
32296;DHT22;18781;51.550;5.418;2023-11-19T09:55:43;15.20;77.20
32296;DHT22;18781;51.550;5.418;2023-11-19T09:58:10;15.20;77.10
32296;DHT22;18781;51.550;5.418;2023-11-19T10:00:37;15.30;76.80
32296;DHT22;18781;51.550;5.418;2023-11-19T10:03:05;15.30;76.60
32296;DHT22;18781;51.550;5.418;2023-11-19T10:05:32;15.30;76.70
32296;DHT22;18781;51.550;5.418;2023-11-19T10:07:58;15.40;76.80
32296;DHT22;18781;51.550;5.418;2023-11-19T10:10:24;15.40;76.80
32296;DHT22;18781;51.550;5.418;2023-11-19T10:12:52;15.40;76.70
32296;DHT22;18781;51.550;5.418;2023-11-19T10:15:22;15.50;76.80
32296;DHT22;18781;51.550;5.418;2023-11-19T10:17:49;15.60;76.60
32296;DHT22;18781;51.550;5.418;2023-11-19T10:20:15;15.60;76.60
32296;DHT22;18781;51.550;5.418;2023-11-19T10:22:40;15.60;76.40
32296;DHT22;18781;51.550;5.418;2023-11-19T10:25:25;15.60;76.10
32296;DHT22;18781;51.550;5.418;2023-11-19T10:27:57;15.70;76.10
32296;DHT22;18781;51.550;5.418;2023-11-19T10:30:27;15.70;75.80
32296;DHT22;18781;51.550;5.418;2023-11-19T10:35:36;15.80;75.80
32296;DHT22;18781;51.550;5.418;2023-11-19T10:38:15;15.80;75.70
32296;DHT22;18781;51.550;5.418;2023-11-19T10:40:41;15.90;75.50
32296;DHT22;18781;51.550;5.418;2023-11-19T10:43:07;15.80;75.40
32296;DHT22;18781;51.550;5.418;2023-11-19T10:45:37;15.90;75.60
32296;DHT22;18781;51.550;5.418;2023-11-19T10:48:03;15.90;75.40
32296;DHT22;18781;51.550;5.418;2023-11-19T10:50:35;15.90;75.20
32296;DHT22;18781;51.550;5.418;2023-11-19T10:53:01;15.90;75.90
32296;DHT22;18781;51.550;5.418;2023-11-19T10:55:29;16.00;76.00
32296;DHT22;18781;51.550;5.418;2023-11-19T10:58:03;16.00;75.00
32296;DHT22;18781;51.550;5.418;2023-11-19T11:03:09;16.00;74.80
32296;DHT22;18781;51.550;5.418;2023-11-19T11:05:36;16.00;74.60
32296;DHT22;18781;51.550;5.418;2023-11-19T11:08:05;16.10;75.00
32296;DHT22;18781;51.550;5.418;2023-11-19T11:10:32;16.10;74.70
32296;DHT22;18781;51.550;5.418;2023-11-19T11:13:03;16.10;74.20
32296;DHT22;18781;51.550;5.418;2023-11-19T11:15:30;16.10;74.00
32296;DHT22;18781;51.550;5.418;2023-11-19T11:18:00;16.20;73.80
32296;DHT22;18781;51.550;5.418;2023-11-19T11:20:32;16.20;74.00
32296;DHT22;18781;51.550;5.418;2023-11-19T11:25:44;16.20;73.70
32296;DHT22;18781;51.550;5.418;2023-11-19T11:28:29;16.20;73.90
32296;DHT22;18781;51.550;5.418;2023-11-19T11:31:15;16.20;74.20
32296;DHT22;18781;51.550;5.418;2023-11-19T11:36:25;16.20;74.00
32296;DHT22;18781;51.550;5.418;2023-11-19T11:38:51;16.20;73.70
32296;DHT22;18781;51.550;5.418;2023-11-19T11:41:22;16.20;74.00
32296;DHT22;18781;51.550;5.418;2023-11-19T11:43:50;16.20;74.10
32296;DHT22;18781;51.550;5.418;2023-11-19T11:49:06;16.10;74.60
32296;DHT22;18781;51.550;5.418;2023-11-19T11:54:11;16.00;75.30
32296;DHT22;18781;51.550;5.418;2023-11-19T11:56:37;16.00;75.30
32296;DHT22;18781;51.550;5.418;2023-11-19T11:59:07;16.00;75.30
32296;DHT22;18781;51.550;5.418;2023-11-19T12:01:33;16.00;75.50
32296;DHT22;18781;51.550;5.418;2023-11-19T12:03:58;16.00;75.50
32296;DHT22;18781;51.550;5.418;2023-11-19T12:06:26;16.00;75.50
32296;DHT22;18781;51.550;5.418;2023-11-19T12:08:52;16.00;75.40
32296;DHT22;18781;51.550;5.418;2023-11-19T12:11:18;16.00;75.40
32296;DHT22;18781;51.550;5.418;2023-11-19T12:13:54;16.00;75.60
32296;DHT22;18781;51.550;5.418;2023-11-19T12:16:21;16.10;75.60
32296;DHT22;18781;51.550;5.418;2023-11-19T12:18:47;16.10;75.20
32296;DHT22;18781;51.550;5.418;2023-11-19T12:21:30;16.10;74.70
32296;DHT22;18781;51.550;5.418;2023-11-19T12:23:58;16.20;74.70
32296;DHT22;18781;51.550;5.418;2023-11-19T12:26:35;16.20;74.40
32296;DHT22;18781;51.550;5.418;2023-11-19T12:29:02;16.20;74.30
32296;DHT22;18781;51.550;5.418;2023-11-19T12:31:29;16.20;74.50
32296;DHT22;18781;51.550;5.418;2023-11-19T12:33:56;16.20;74.40
32296;DHT22;18781;51.550;5.418;2023-11-19T12:36:21;16.20;74.20
32296;DHT22;18781;51.550;5.418;2023-11-19T12:38:47;16.30;74.20
32296;DHT22;18781;51.550;5.418;2023-11-19T12:41:13;16.30;74.00
32296;DHT22;18781;51.550;5.418;2023-11-19T12:43:43;16.30;74.00
32296;DHT22;18781;51.550;5.418;2023-11-19T12:46:20;16.30;73.90
32296;DHT22;18781;51.550;5.418;2023-11-19T12:48:47;16.30;73.50
32296;DHT22;18781;51.550;5.418;2023-11-19T12:51:13;16.40;73.80
32296;DHT22;18781;51.550;5.418;2023-11-19T12:53:52;16.30;73.60
32296;DHT22;18781;51.550;5.418;2023-11-19T12:56:21;16.40;73.40
32296;DHT22;18781;51.550;5.418;2023-11-19T12:58:48;16.40;73.20
32296;DHT22;18781;51.550;5.418;2023-11-19T13:01:18;16.30;73.30
32296;DHT22;18781;51.550;5.418;2023-11-19T13:03:45;16.30;73.10
32296;DHT22;18781;51.550;5.418;2023-11-19T13:06:13;16.30;72.90
32296;DHT22;18781;51.550;5.418;2023-11-19T13:08:45;16.30;72.90
32296;DHT22;18781;51.550;5.418;2023-11-19T13:11:12;16.30;73.20
32296;DHT22;18781;51.550;5.418;2023-11-19T13:14:00;16.20;73.60
32296;DHT22;18781;51.550;5.418;2023-11-19T13:16:27;16.30;73.80
32296;DHT22;18781;51.550;5.418;2023-11-19T13:18:54;16.20;73.70
32296;DHT22;18781;51.550;5.418;2023-11-19T13:21:20;16.20;73.80
32296;DHT22;18781;51.550;5.418;2023-11-19T13:23:45;16.20;74.00
32296;DHT22;18781;51.550;5.418;2023-11-19T13:26:11;16.20;74.20
32296;DHT22;18781;51.550;5.418;2023-11-19T13:28:37;16.20;74.40
32296;DHT22;18781;51.550;5.418;2023-11-19T13:31:04;16.20;74.40
32296;DHT22;18781;51.550;5.418;2023-11-19T13:33:29;16.20;74.60
32296;DHT22;18781;51.550;5.418;2023-11-19T13:35:56;16.20;74.80
32296;DHT22;18781;51.550;5.418;2023-11-19T13:38:22;16.20;74.80
32296;DHT22;18781;51.550;5.418;2023-11-19T13:40:49;16.20;74.70
32296;DHT22;18781;51.550;5.418;2023-11-19T13:43:15;16.30;74.40
32296;DHT22;18781;51.550;5.418;2023-11-19T13:45:41;16.30;74.40
32296;DHT22;18781;51.550;5.418;2023-11-19T13:48:06;16.20;74.40
32296;DHT22;18781;51.550;5.418;2023-11-19T13:50:32;16.20;74.30
32296;DHT22;18781;51.550;5.418;2023-11-19T13:52:59;16.20;74.10
32296;DHT22;18781;51.550;5.418;2023-11-19T13:55:25;16.20;74.00
32296;DHT22;18781;51.550;5.418;2023-11-19T13:57:51;16.20;73.90
32296;DHT22;18781;51.550;5.418;2023-11-19T14:00:17;16.20;73.80
32296;DHT22;18781;51.550;5.418;2023-11-19T14:02:47;16.20;73.60
32296;DHT22;18781;51.550;5.418;2023-11-19T14:05:14;16.20;73.70
32296;DHT22;18781;51.550;5.418;2023-11-19T14:07:41;16.20;73.80
32296;DHT22;18781;51.550;5.418;2023-11-19T14:10:08;16.10;73.90
32296;DHT22;18781;51.550;5.418;2023-11-19T14:12:39;16.10;73.80
32296;DHT22;18781;51.550;5.418;2023-11-19T14:15:09;16.10;73.90
32296;DHT22;18781;51.550;5.418;2023-11-19T14:17:38;16.10;73.90
32296;DHT22;18781;51.550;5.418;2023-11-19T14:20:05;16.10;73.80
32296;DHT22;18781;51.550;5.418;2023-11-19T14:22:39;16.10;74.40
32296;DHT22;18781;51.550;5.418;2023-11-19T14:25:05;16.10;73.90
32296;DHT22;18781;51.550;5.418;2023-11-19T14:27:38;16.00;73.90
32296;DHT22;18781;51.550;5.418;2023-11-19T14:30:08;16.00;74.00
32296;DHT22;18781;51.550;5.418;2023-11-19T14:32:37;16.00;74.00
32296;DHT22;18781;51.550;5.418;2023-11-19T14:35:04;16.00;74.00
32296;DHT22;18781;51.550;5.418;2023-11-19T14:37:30;16.00;74.20
32296;DHT22;18781;51.550;5.418;2023-11-19T14:39:59;15.90;74.30
32296;DHT22;18781;51.550;5.418;2023-11-19T14:42:25;16.00;74.30
32296;DHT22;18781;51.550;5.418;2023-11-19T14:44:54;15.90;74.30
32296;DHT22;18781;51.550;5.418;2023-11-19T14:47:21;16.00;74.10
32296;DHT22;18781;51.550;5.418;2023-11-19T14:49:46;15.90;74.00
32296;DHT22;18781;51.550;5.418;2023-11-19T14:52:12;15.90;74.00
32296;DHT22;18781;51.550;5.418;2023-11-19T14:54:38;15.90;73.90
32296;DHT22;18781;51.550;5.418;2023-11-19T14:57:04;15.90;73.90
32296;DHT22;18781;51.550;5.418;2023-11-19T14:59:30;15.90;74.00
32296;DHT22;18781;51.550;5.418;2023-11-19T15:01:56;15.90;74.00
32296;DHT22;18781;51.550;5.418;2023-11-19T15:04:22;15.80;74.10
32296;DHT22;18781;51.550;5.418;2023-11-19T15:06:48;15.80;74.00
32296;DHT22;18781;51.550;5.418;2023-11-19T15:09:13;15.80;74.00
32296;DHT22;18781;51.550;5.418;2023-11-19T15:11:43;15.80;74.20
32296;DHT22;18781;51.550;5.418;2023-11-19T15:14:12;15.80;74.60
32296;DHT22;18781;51.550;5.418;2023-11-19T15:16:40;15.80;74.50
32296;DHT22;18781;51.550;5.418;2023-11-19T15:19:06;15.70;74.60
32296;DHT22;18781;51.550;5.418;2023-11-19T15:21:33;15.70;74.80
32296;DHT22;18781;51.550;5.418;2023-11-19T15:23:59;15.70;75.00
32296;DHT22;18781;51.550;5.418;2023-11-19T15:26:25;15.60;75.10
32296;DHT22;18781;51.550;5.418;2023-11-19T15:28:51;15.60;75.10
32296;DHT22;18781;51.550;5.418;2023-11-19T15:31:21;15.60;75.20
32296;DHT22;18781;51.550;5.418;2023-11-19T15:33:47;15.50;75.20
32296;DHT22;18781;51.550;5.418;2023-11-19T15:36:13;15.50;75.30
32296;DHT22;18781;51.550;5.418;2023-11-19T15:38:40;15.50;75.40
32296;DHT22;18781;51.550;5.418;2023-11-19T15:41:06;15.50;75.50
32296;DHT22;18781;51.550;5.418;2023-11-19T15:43:33;15.50;75.60
32296;DHT22;18781;51.550;5.418;2023-11-19T15:45:58;15.40;75.60